Time;durP1;ratioP1;P1;durP2;ratioP2;P2;SDS_P1;SDS_P2;PMS_P1;PMS_P2;Temp;Humidity;BMP_temperature;BMP_pressure;BME280_temperature;BME280_humidity;BME280_pressure;Samples;Min_cycle;Max_cycle;Signal;HPM_P1;HPM_P2
2022/03/02 05:01:20;;;;;;;20.37;17.30;;;0.60;99.70;;;;;;5506918;23;20540;-69
2022/03/02 05:03:47;;;;;;;17.87;15.97;;;0.50;99.90;;;;;;4956651;29;20448;-68
2022/03/02 05:06:14;;;;;;;18.07;16.10;;;0.40;99.90;;;;;;4957051;28;20449;-68
2022/03/02 05:08:40;;;;;;;19.13;16.83;;;0.40;99.90;;;;;;4958986;29;20973;-68
2022/03/02 05:11:07;;;;;;;17.80;15.83;;;0.30;99.90;;;;;;4959926;29;20472;-70
2022/03/02 05:13:36;;;;;;;17.90;15.53;;;0.30;99.90;;;;;;4958180;29;20451;-69
2022/03/02 05:16:03;;;;;;;19.23;17.00;;;0.30;99.90;;;;;;4957542;29;20517;-67
2022/03/02 05:18:31;;;;;;;17.87;15.90;;;0.30;99.90;;;;;;4957232;29;20451;-68
2022/03/02 05:20:57;;;;;;;18.57;16.67;;;0.20;99.90;;;;;;4956807;29;20491;-68
2022/03/02 05:23:24;;;;;;;18.47;16.10;;;0.20;99.90;;;;;;4956480;29;20456;-68
2022/03/02 05:25:51;;;;;;;20.63;16.63;;;0.10;99.90;;;;;;4956314;28;20961;-69
2022/03/02 05:28:18;;;;;;;20.83;16.17;;;0.10;99.90;;;;;;4957060;28;20818;-68
2022/03/02 05:30:44;;;;;;;18.20;15.40;;;0.10;99.90;;;;;;4956590;29;20490;-68
2022/03/02 05:33:11;;;;;;;16.83;15.13;;;0.10;99.90;;;;;;4957631;29;20473;-68
2022/03/02 05:35:39;;;;;;;18.53;15.63;;;0.10;99.90;;;;;;4958052;29;20457;-68
2022/03/02 05:38:07;;;;;;;21.00;15.50;;;0.20;99.90;;;;;;4957077;28;20463;-68
2022/03/02 05:40:33;;;;;;;17.93;16.13;;;0.20;99.90;;;;;;4957695;28;20479;-68
2022/03/02 05:43:00;;;;;;;17.07;15.27;;;0.10;99.90;;;;;;4957874;29;20489;-68
2022/03/02 05:45:27;;;;;;;17.40;15.53;;;0.20;99.90;;;;;;4957409;29;20845;-67
2022/03/02 05:47:54;;;;;;;17.37;15.67;;;0.20;99.90;;;;;;4957115;29;20489;-67
2022/03/02 05:50:21;;;;;;;17.13;15.20;;;0.30;99.90;;;;;;4958689;29;20471;-68
2022/03/02 05:52:49;;;;;;;18.07;16.07;;;0.20;99.90;;;;;;4957677;29;20460;-67
2022/03/02 05:55:16;;;;;;;18.63;15.43;;;0.20;99.90;;;;;;4957937;29;20455;-68
2022/03/02 05:57:42;;;;;;;20.80;15.93;;;0.20;99.90;;;;;;4958144;29;20459;-68
2022/03/02 06:00:11;;;;;;;19.73;16.70;;;0.10;99.90;;;;;;4958090;29;20970;-68
2022/03/02 06:02:38;;;;;;;19.60;15.40;;;0.10;99.90;;;;;;4958661;29;20491;-67
2022/03/02 06:05:06;;;;;;;17.03;15.23;;;0.00;99.90;;;;;;4959581;29;20481;-68
2022/03/02 06:07:32;;;;;;;16.93;14.33;;;-0.10;99.90;;;;;;4960721;29;20462;-68
2022/03/02 06:10:01;;;;;;;16.93;15.13;;;-0.20;99.90;;;;;;4960228;28;20468;-67
2022/03/02 06:12:28;;;;;;;15.67;14.00;;;-0.20;99.90;;;;;;4962675;28;21001;-69
2022/03/02 06:14:56;;;;;;;14.80;13.23;;;-0.20;99.90;;;;;;4962292;29;20460;-70
2022/03/02 06:17:23;;;;;;;14.30;12.90;;;-0.30;99.90;;;;;;4962857;29;20458;-68
2022/03/02 06:19:50;;;;;;;16.23;14.23;;;-0.30;99.90;;;;;;4962147;28;20455;-69
2022/03/02 06:22:17;;;;;;;14.80;13.20;;;-0.30;99.90;;;;;;4962204;28;20472;-68
2022/03/02 06:24:45;;;;;;;16.63;13.47;;;-0.30;99.90;;;;;;4966866;29;20470;-68
2022/03/02 06:27:13;;;;;;;14.27;12.77;;;-0.30;99.90;;;;;;4967599;28;20489;-69
2022/03/02 06:29:39;;;;;;;14.03;12.60;;;-0.30;99.90;;;;;;4969933;29;20455;-68
2022/03/02 06:32:07;;;;;;;15.50;13.00;;;-0.10;99.90;;;;;;4969530;29;20473;-69
2022/03/02 06:34:34;;;;;;;14.83;13.23;;;0.00;99.90;;;;;;4967128;28;20461;-67
2022/03/02 06:37:01;;;;;;;14.47;13.07;;;0.10;99.90;;;;;;4964285;29;20463;-69
2022/03/02 06:39:27;;;;;;;15.90;14.17;;;0.30;99.90;;;;;;4961936;29;20454;-68
2022/03/02 06:42:04;;;;;;;15.20;13.50;;;0.40;99.90;;;;;;4966855;29;20480;-69
2022/03/02 06:44:38;;;;;;;15.60;12.13;;;0.50;99.90;;;;;;4962199;29;20446;-67
2022/03/02 06:47:06;;;;;;;13.60;12.27;;;0.60;99.90;;;;;;4960745;29;20449;-70
2022/03/02 06:49:46;;;;;;;15.70;13.37;;;0.60;99.90;;;;;;4960598;29;20510;-68
2022/03/02 06:52:17;;;;;;;17.30;13.00;;;0.60;99.90;;;;;;4960728;29;20494;-68
2022/03/02 06:54:47;;;;;;;16.83;13.77;;;0.70;99.90;;;;;;4959486;29;20518;-68
2022/03/02 06:57:18;;;;;;;19.10;12.47;;;0.70;99.90;;;;;;4960160;29;20459;-68
2022/03/02 06:59:53;;;;;;;13.50;11.53;;;0.80;99.90;;;;;;4959802;29;20437;-68
2022/03/02 07:02:38;;;;;;;13.00;11.70;;;0.90;99.90;;;;;;4960245;29;20532;-67
2022/03/02 07:05:08;;;;;;;17.07;12.50;;;1.10;99.90;;;;;;4960693;29;20452;-69
2022/03/02 07:07:35;;;;;;;12.80;11.50;;;1.10;99.90;;;;;;4959840;29;20467;-68
2022/03/02 07:10:03;;;;;;;17.83;11.07;;;1.30;99.90;;;;;;4959158;28;20464;-69
2022/03/02 07:12:30;;;;;;;19.90;11.40;;;1.30;99.90;;;;;;4958676;28;20489;-68
2022/03/02 07:14:59;;;;;;;17.37;12.90;;;1.40;99.90;;;;;;4959055;29;20508;-68
2022/03/02 07:17:28;;;;;;;17.10;12.93;;;1.50;99.90;;;;;;4959060;29;20461;-68
2022/03/02 07:19:55;;;;;;;13.33;11.93;;;1.60;99.90;;;;;;4959800;28;20854;-68
2022/03/02 07:22:24;;;;;;;13.87;11.80;;;1.70;99.90;;;;;;4957712;28;20863;-67
2022/03/02 07:24:54;;;;;;;14.90;12.90;;;1.80;99.90;;;;;;4959333;29;20945;-68
2022/03/02 07:27:23;;;;;;;13.00;11.80;;;1.90;99.90;;;;;;4960516;29;20459;-68
2022/03/02 07:29:52;;;;;;;18.90;12.77;;;1.90;99.90;;;;;;4959649;29;20457;-68
2022/03/02 07:32:23;;;;;;;16.23;13.80;;;1.90;99.90;;;;;;4959366;28;20475;-67
2022/03/02 07:34:56;;;;;;;17.87;15.47;;;1.90;99.90;;;;;;4958955;29;20438;-68
2022/03/02 07:37:23;;;;;;;21.33;16.43;;;1.90;99.90;;;;;;4959470;29;20474;-67
2022/03/02 07:39:51;;;;;;;22.17;15.23;;;2.00;99.90;;;;;;4959223;29;20463;-67
2022/03/02 07:42:19;;;;;;;21.43;15.90;;;2.00;99.90;;;;;;4958986;28;20484;-68
2022/03/02 07:44:47;;;;;;;19.23;14.60;;;2.10;99.90;;;;;;4959091;29;20462;-68
2022/03/02 07:47:13;;;;;;;17.23;15.37;;;2.10;99.90;;;;;;4959458;28;20530;-69
2022/03/02 07:49:42;;;;;;;26.50;15.87;;;2.20;99.90;;;;;;4958537;28;20516;-69
2022/03/02 07:52:10;;;;;;;19.40;15.50;;;2.20;99.80;;;;;;4958837;29;20477;-68
2022/03/02 07:54:39;;;;;;;19.93;14.40;;;2.20;99.80;;;;;;4959809;29;20458;-67
2022/03/02 07:57:08;;;;;;;20.40;15.20;;;2.30;99.60;;;;;;4958744;29;20470;-68
2022/03/02 07:59:39;;;;;;;19.07;14.83;;;2.30;99.60;;;;;;4958308;29;20473;-68
2022/03/02 08:02:07;;;;;;;23.90;15.47;;;2.40;99.40;;;;;;4957754;29;20495;-67
2022/03/02 08:04:36;;;;;;;17.33;15.27;;;2.40;99.80;;;;;;4957912;28;20467;-69
2022/03/02 08:07:05;;;;;;;26.50;14.80;;;2.60;99.90;;;;;;4958308;28;20463;-68
2022/03/02 08:09:32;;;;;;;20.10;14.97;;;2.70;99.60;;;;;;4958187;29;20469;-68
2022/03/02 08:12:00;;;;;;;24.43;15.60;;;2.80;99.60;;;;;;4960866;29;20474;-68
2022/03/02 08:14:27;;;;;;;16.47;13.20;;;2.90;99.20;;;;;;4961999;29;20462;-68
2022/03/02 08:16:55;;;;;;;16.90;13.30;;;3.00;98.60;;;;;;4962307;28;20459;-69
2022/03/02 08:19:22;;;;;;;14.77;12.60;;;3.00;97.90;;;;;;4962134;29;20460;-70
2022/03/02 08:21:57;;;;;;;15.60;11.97;;;3.00;97.40;;;;;;4957341;29;20492;-68
2022/03/02 08:24:27;;;;;;;14.20;12.70;;;3.00;96.20;;;;;;4957243;29;20481;-68
2022/03/02 08:26:58;;;;;;;18.03;13.10;;;3.00;96.00;;;;;;4956792;29;20466;-68
2022/03/02 08:29:30;;;;;;;13.60;12.20;;;3.10;96.40;;;;;;4957188;29;20514;-68
2022/03/02 08:31:59;;;;;;;12.87;11.57;;;3.00;95.70;;;;;;4956762;28;20486;-70
2022/03/02 08:34:26;;;;;;;16.60;12.30;;;3.10;95.80;;;;;;4956721;29;20466;-68
2022/03/02 08:36:54;;;;;;;14.63;12.00;;;3.20;96.00;;;;;;4956964;29;20467;-68
2022/03/02 08:39:21;;;;;;;14.20;11.40;;;3.20;95.90;;;;;;4957830;29;20459;-68
2022/03/02 08:41:49;;;;;;;14.63;12.07;;;3.30;95.50;;;;;;4957336;28;21001;-69
2022/03/02 08:44:16;;;;;;;14.37;12.43;;;3.40;95.60;;;;;;4957584;29;20464;-68
2022/03/02 08:46:45;;;;;;;14.00;11.63;;;3.60;96.40;;;;;;4957721;29;20461;-68
2022/03/02 08:49:12;;;;;;;13.97;12.20;;;3.70;94.40;;;;;;4957218;29;20469;-67
2022/03/02 08:51:40;;;;;;;13.57;11.27;;;3.90;94.60;;;;;;4957064;29;20514;-68
2022/03/02 08:54:08;;;;;;;15.20;11.50;;;4.10;93.80;;;;;;4956812;29;20960;-68
2022/03/02 08:56:38;;;;;;;12.50;11.03;;;4.30;93.70;;;;;;4956489;29;20459;-67
2022/03/02 08:59:07;;;;;;;15.57;11.50;;;4.60;92.90;;;;;;4956387;29;20539;-68
2022/03/02 09:01:40;;;;;;;14.20;10.87;;;5.00;92.30;;;;;;4956294;29;20498;-70
2022/03/02 09:04:07;;;;;;;13.77;11.07;;;5.40;91.20;;;;;;4969463;29;20495;-68
2022/03/02 09:06:36;;;;;;;13.20;10.70;;;5.90;90.40;;;;;;4961452;29;20455;-67
2022/03/02 09:09:04;;;;;;;11.50;10.27;;;6.40;88.30;;;;;;4956001;28;20521;-68
2022/03/02 09:11:31;;;;;;;19.03;10.60;;;6.90;85.60;;;;;;4955731;29;20479;-67
2022/03/02 09:13:58;;;;;;;15.23;11.77;;;6.90;81.30;;;;;;4955856;29;20460;-68
2022/03/02 09:16:26;;;;;;;13.77;11.50;;;6.50;80.40;;;;;;4955306;29;21018;-67
2022/03/02 09:18:53;;;;;;;12.73;10.70;;;6.70;82.10;;;;;;4955570;29;20464;-68
2022/03/02 09:21:21;;;;;;;14.37;11.73;;;6.50;82.10;;;;;;4955554;29;20904;-67
2022/03/02 09:23:49;;;;;;;11.83;10.53;;;6.60;82.70;;;;;;4958101;29;20489;-68
2022/03/02 09:26:17;;;;;;;17.03;12.83;;;6.50;82.30;;;;;;4955559;29;20482;-67
2022/03/02 09:28:46;;;;;;;14.93;11.27;;;6.70;82.60;;;;;;4955680;29;20455;-68
2022/03/02 09:31:16;;;;;;;17.03;11.93;;;7.10;83.60;;;;;;4955632;29;20511;-67
2022/03/02 09:33:49;;;;;;;14.27;11.80;;;7.50;83.10;;;;;;4955624;29;20444;-69
2022/03/02 09:36:25;;;;;;;16.97;12.80;;;7.70;81.40;;;;;;4955600;29;20444;-67
2022/03/02 09:38:53;;;;;;;16.10;12.90;;;7.90;80.40;;;;;;4955644;29;20440;-68
2022/03/02 09:41:29;;;;;;;15.73;12.60;;;8.20;80.70;;;;;;4955713;29;20479;-68
2022/03/02 09:43:58;;;;;;;12.73;11.33;;;8.80;80.20;;;;;;4957790;28;20531;-68
2022/03/02 09:46:33;;;;;;;12.93;11.70;;;9.40;75.30;;;;;;4959403;29;20870;-68
2022/03/02 09:49:05;;;;;;;16.77;12.80;;;9.70;72.50;;;;;;4959448;29;20444;-68
2022/03/02 09:51:33;;;;;;;14.37;11.50;;;10.10;69.50;;;;;;4959330;29;20538;-68
2022/03/02 09:54:02;;;;;;;14.03;11.80;;;10.00;65.30;;;;;;4959414;29;20468;-69
2022/03/02 09:56:31;;;;;;;13.43;12.07;;;9.90;67.20;;;;;;4959236;29;20467;-69
2022/03/02 09:59:00;;;;;;;15.60;12.80;;;10.00;66.20;;;;;;4959256;28;20459;-69
2022/03/02 10:01:29;;;;;;;16.33;12.07;;;9.80;66.70;;;;;;4958920;29;20483;-68
2022/03/02 10:03:56;;;;;;;14.50;13.00;;;9.40;65.70;;;;;;4961022;29;20483;-68
2022/03/02 10:06:25;;;;;;;15.43;13.23;;;9.00;66.60;;;;;;4968284;29;20456;-67
2022/03/02 10:08:54;;;;;;;13.90;12.20;;;9.00;67.50;;;;;;4959662;28;20970;-67
2022/03/02 10:11:24;;;;;;;17.00;12.63;;;9.00;67.00;;;;;;4959492;28;20480;-66
2022/03/02 10:13:51;;;;;;;13.63;12.43;;;9.20;67.50;;;;;;4959659;29;20510;-68
2022/03/02 10:16:22;;;;;;;12.77;11.30;;;9.50;67.10;;;;;;4959680;29;20463;-68
2022/03/02 10:18:56;;;;;;;14.50;13.00;;;9.90;66.70;;;;;;4959521;29;20455;-67
2022/03/02 10:21:30;;;;;;;20.77;14.07;;;10.20;63.70;;;;;;4959517;29;20479;-68
2022/03/02 10:23:59;;;;;;;18.40;13.90;;;10.80;63.40;;;;;;4959277;29;20468;-68
2022/03/02 10:26:27;;;;;;;17.33;13.80;;;11.50;62.20;;;;;;4959303;29;20459;-67
2022/03/02 10:29:00;;;;;;;15.87;13.17;;;11.60;59.40;;;;;;4958696;29;20463;-67
2022/03/02 10:31:45;;;;;;;15.27;13.67;;;11.70;58.30;;;;;;4959039;29;20483;-64
2022/03/02 10:34:36;;;;;;;15.53;13.93;;;11.80;59.20;;;;;;4958928;29;20862;-65
2022/03/02 10:37:24;;;;;;;17.63;13.83;;;11.30;58.20;;;;;;4958548;28;20495;-65
2022/03/02 10:39:57;;;;;;;15.33;13.80;;;11.20;57.80;;;;;;4958493;29;20479;-65
2022/03/02 10:42:28;;;;;;;15.10;13.50;;;10.70;58.10;;;;;;4959578;28;20479;-65
2022/03/02 10:45:04;;;;;;;13.87;12.57;;;10.70;59.70;;;;;;4958709;29;20445;-65
2022/03/02 10:47:32;;;;;;;14.30;12.90;;;10.60;57.70;;;;;;4958580;29;20444;-65
2022/03/02 10:50:02;;;;;;;15.60;14.00;;;10.50;58.60;;;;;;4958520;29;20550;-66
2022/03/02 10:52:33;;;;;;;18.20;12.97;;;10.30;59.80;;;;;;4958311;29;20479;-66
2022/03/02 10:55:05;;;;;;;17.30;13.37;;;10.20;58.30;;;;;;4957918;28;20439;-65
2022/03/02 10:57:34;;;;;;;14.37;12.87;;;10.00;58.40;;;;;;4957680;29;20462;-65
2022/03/02 11:00:06;;;;;;;15.20;13.60;;;9.80;59.70;;;;;;4958826;29;20551;-65
2022/03/02 11:02:35;;;;;;;16.50;14.33;;;9.80;60.80;;;;;;4958188;29;20488;-64
2022/03/02 11:05:03;;;;;;;15.30;13.70;;;9.50;61.20;;;;;;4959150;29;20440;-66
2022/03/02 11:07:32;;;;;;;26.13;17.23;;;9.30;62.80;;;;;;4959256;28;20444;-65
2022/03/02 11:10:02;;;;;;;21.07;14.00;;;9.20;63.90;;;;;;4958398;29;20460;-66
2022/03/02 11:12:31;;;;;;;16.23;13.77;;;9.10;65.10;;;;;;4962373;29;20482;-66
2022/03/02 11:14:59;;;;;;;19.83;17.10;;;9.20;65.40;;;;;;4962928;29;20456;-64
2022/03/02 11:17:27;;;;;;;19.13;15.27;;;9.20;65.40;;;;;;4958404;29;20959;-64
2022/03/02 11:19:55;;;;;;;14.40;13.00;;;9.00;63.40;;;;;;4958290;29;20459;-64
2022/03/02 11:22:23;;;;;;;18.53;13.27;;;9.10;65.00;;;;;;4957909;29;21074;-65
2022/03/02 11:24:56;;;;;;;14.60;12.23;;;9.00;63.40;;;;;;4957788;29;20487;-64
2022/03/02 11:27:36;;;;;;;13.70;12.33;;;9.00;63.40;;;;;;4958158;29;20440;-65
2022/03/02 11:30:09;;;;;;;15.33;13.40;;;9.10;64.50;;;;;;4958651;29;20455;-65
2022/03/02 11:32:37;;;;;;;19.27;13.27;;;9.40;65.10;;;;;;4957959;28;20480;-65
2022/03/02 11:35:05;;;;;;;15.83;13.33;;;9.30;65.40;;;;;;4958088;29;20463;-64
2022/03/02 11:37:32;;;;;;;15.10;12.20;;;9.50;64.20;;;;;;4958121;29;20823;-64
2022/03/02 11:40:02;;;;;;;13.63;11.80;;;9.40;64.10;;;;;;4958184;29;20460;-67
2022/03/02 11:42:31;;;;;;;13.67;12.27;;;9.30;62.80;;;;;;4957656;29;20479;-66
2022/03/02 11:44:59;;;;;;;12.70;11.40;;;9.30;63.80;;;;;;4957673;29;20490;-66
2022/03/02 11:47:34;;;;;;;12.80;11.53;;;9.20;62.50;;;;;;4957852;29;20824;-66
2022/03/02 11:50:01;;;;;;;13.23;11.70;;;9.10;61.90;;;;;;4957422;29;20446;-66
2022/03/02 11:52:29;;;;;;;12.03;10.83;;;9.30;61.80;;;;;;4961465;28;20472;-66
2022/03/02 11:55:05;;;;;;;12.40;10.60;;;9.50;60.30;;;;;;4967552;29;20456;-67
2022/03/02 11:57:39;;;;;;;14.23;10.63;;;9.60;61.70;;;;;;4957449;29;20440;-66
2022/03/02 12:00:09;;;;;;;11.83;10.73;;;9.70;61.30;;;;;;4957577;29;20451;-67
2022/03/02 12:02:41;;;;;;;12.57;10.50;;;9.80;61.40;;;;;;4957552;29;20487;-65
2022/03/02 12:05:08;;;;;;;13.23;11.10;;;10.00;60.30;;;;;;4957315;29;20847;-66
2022/03/02 12:07:40;;;;;;;13.50;11.43;;;10.20;59.20;;;;;;4957077;28;20511;-67
2022/03/02 12:10:17;;;;;;;13.03;11.10;;;10.30;59.50;;;;;;4957799;28;20456;-66
2022/03/02 12:12:45;;;;;;;11.93;10.50;;;10.50;58.70;;;;;;4957116;29;20803;-67
2022/03/02 12:15:12;;;;;;;11.07;10.00;;;10.70;60.10;;;;;;4958134;29;20471;-66
2022/03/02 12:17:39;;;;;;;13.20;11.73;;;10.80;56.30;;;;;;4957590;28;20831;-66
2022/03/02 12:20:10;;;;;;;12.07;10.80;;;10.90;56.70;;;;;;4957853;29;20456;-66
2022/03/02 12:22:38;;;;;;;12.53;11.33;;;11.00;57.50;;;;;;4966019;28;20479;-66
2022/03/02 12:25:07;;;;;;;12.13;10.73;;;10.80;56.80;;;;;;4968533;28;20490;-67
2022/03/02 12:27:35;;;;;;;11.63;10.10;;;10.90;57.80;;;;;;4958361;28;20459;-66
2022/03/02 12:30:05;;;;;;;13.50;9.90;;;10.90;57.80;;;;;;4957505;29;20460;-67
2022/03/02 12:32:34;;;;;;;12.70;10.00;;;10.80;56.90;;;;;;4956800;28;20482;-66
2022/03/02 12:35:03;;;;;;;12.00;10.70;;;10.80;56.70;;;;;;4956639;29;20462;-67
2022/03/02 12:37:31;;;;;;;12.50;11.20;;;10.60;56.20;;;;;;4956651;29;20542;-66
2022/03/02 12:39:58;;;;;;;11.13;9.93;;;10.60;57.20;;;;;;4956949;29;20468;-67
2022/03/02 12:42:25;;;;;;;12.10;10.90;;;10.10;57.10;;;;;;4957379;28;20856;-66
2022/03/02 12:44:55;;;;;;;11.13;10.03;;;9.80;57.40;;;;;;4956515;29;20531;-67
2022/03/02 12:47:24;;;;;;;12.30;10.70;;;9.70;59.00;;;;;;4957943;29;20444;-67
2022/03/02 12:49:51;;;;;;;16.93;11.67;;;9.70;59.60;;;;;;4956705;29;20507;-66
2022/03/02 12:52:20;;;;;;;14.13;10.53;;;9.80;59.70;;;;;;4956147;29;20887;-66
2022/03/02 12:54:48;;;;;;;13.87;10.73;;;9.70;59.30;;;;;;4956404;29;20463;-67
2022/03/02 12:57:18;;;;;;;12.00;10.57;;;9.50;59.20;;;;;;4956185;29;20875;-67
2022/03/02 12:59:45;;;;;;;13.50;10.70;;;9.50;59.40;;;;;;4955938;29;20456;-66
2022/03/02 13:02:17;;;;;;;12.03;9.80;;;9.50;59.50;;;;;;4955900;29;20491;-66
2022/03/02 13:04:55;;;;;;;12.47;10.27;;;9.40;59.00;;;;;;4955898;28;20471;-65
2022/03/02 13:07:28;;;;;;;10.90;9.47;;;9.50;58.30;;;;;;4955913;29;20420;-66
2022/03/02 13:09:55;;;;;;;17.03;10.33;;;9.40;59.20;;;;;;4955931;28;20528;-66
2022/03/02 13:12:31;;;;;;;10.80;9.50;;;9.30;61.90;;;;;;4955639;29;20485;-68
2022/03/02 13:14:59;;;;;;;12.30;10.40;;;9.30;59.70;;;;;;4955865;28;20538;-67
2022/03/02 13:17:28;;;;;;;10.60;9.43;;;9.40;61.40;;;;;;4955835;29;20451;-68
2022/03/02 13:19:57;;;;;;;10.23;9.30;;;9.40;61.10;;;;;;4955166;28;20460;-66
2022/03/02 13:22:27;;;;;;;12.07;9.80;;;9.50;61.10;;;;;;4955656;28;20816;-67
2022/03/02 13:24:56;;;;;;;11.33;9.67;;;9.40;62.50;;;;;;4955667;28;20464;-66
2022/03/02 13:27:24;;;;;;;9.87;8.97;;;9.30;61.50;;;;;;4955360;28;20947;-67
2022/03/02 13:29:58;;;;;;;13.20;11.60;;;9.20;61.80;;;;;;4955857;28;20462;-66
2022/03/02 13:33:05;;;;;;;16.83;10.90;;;9.20;63.40;;;;;;4955517;29;20498;-66
2022/03/02 13:35:35;;;;;;;18.03;12.37;;;9.40;68.70;;;;;;4955663;29;20444;-66
2022/03/02 13:38:07;;;;;;;14.13;11.77;;;9.30;68.30;;;;;;4955499;29;20908;-67
2022/03/02 13:40:58;;;;;;;15.30;11.03;;;9.30;68.60;;;;;;4955529;28;20484;-66
2022/03/02 13:43:42;;;;;;;13.53;11.63;;;9.40;69.00;;;;;;4937839;28;20460;-67
2022/03/02 13:46:30;;;;;;;12.47;11.07;;;9.30;67.90;;;;;;4964612;29;20472;-66
2022/03/02 13:48:58;;;;;;;13.60;11.13;;;9.10;68.80;;;;;;4951376;28;20551;-67
2022/03/02 13:51:26;;;;;;;13.10;11.73;;;8.90;69.30;;;;;;4956093;29;20476;-67
2022/03/02 13:54:00;;;;;;;15.73;11.83;;;8.90;70.70;;;;;;4956942;28;20448;-68
2022/03/02 13:56:40;;;;;;;14.43;11.60;;;9.00;70.70;;;;;;4955727;29;20451;-67
2022/03/02 13:59:18;;;;;;;12.90;10.40;;;9.00;71.80;;;;;;4955340;29;20531;-67
2022/03/02 14:01:45;;;;;;;11.50;10.37;;;9.00;69.60;;;;;;4954737;29;20490;-67
2022/03/02 14:04:18;;;;;;;11.17;10.17;;;8.90;69.30;;;;;;4955241;29;20886;-67
2022/03/02 14:06:46;;;;;;;14.87;11.50;;;8.90;70.30;;;;;;4955307;29;20448;-65
2022/03/02 14:09:14;;;;;;;14.93;11.30;;;8.90;69.20;;;;;;4955329;29;20462;-67
2022/03/02 14:11:43;;;;;;;11.80;10.57;;;8.80;68.30;;;;;;4955174;29;20479;-67
2022/03/02 14:14:14;;;;;;;12.10;10.90;;;8.90;70.60;;;;;;4955376;28;20460;-67
2022/03/02 14:16:56;;;;;;;12.10;10.77;;;9.00;71.00;;;;;;4955613;29;20494;-67
2022/03/02 14:19:25;;;;;;;13.60;10.70;;;9.20;70.60;;;;;;4956092;29;20469;-68
2022/03/02 14:21:54;;;;;;;19.57;11.90;;;9.20;69.70;;;;;;4955489;29;20486;-67
2022/03/02 14:24:21;;;;;;;13.30;12.00;;;9.20;69.70;;;;;;4955378;28;20475;-67
2022/03/02 14:26:57;;;;;;;15.90;11.90;;;9.30;70.80;;;;;;4955358;29;20459;-67
2022/03/02 14:29:24;;;;;;;15.23;12.27;;;9.20;69.10;;;;;;4955584;29;20539;-67
2022/03/02 14:31:52;;;;;;;17.37;11.97;;;9.30;70.80;;;;;;4958013;28;20479;-67
2022/03/02 14:34:19;;;;;;;13.97;12.33;;;9.30;69.90;;;;;;4958558;29;20456;-67
2022/03/02 14:36:47;;;;;;;12.90;11.70;;;9.40;68.40;;;;;;4958616;29;20459;-68
2022/03/02 14:39:14;;;;;;;13.10;11.00;;;9.40;68.30;;;;;;4958312;29;20467;-67
2022/03/02 14:41:41;;;;;;;14.63;12.10;;;9.40;69.90;;;;;;4958821;28;20478;-67
2022/03/02 14:44:13;;;;;;;12.83;11.53;;;9.40;69.30;;;;;;4958334;29;20990;-66
2022/03/02 14:46:41;;;;;;;18.13;13.03;;;9.50;69.70;;;;;;4958770;29;20448;-67
2022/03/02 14:49:07;;;;;;;11.80;10.60;;;9.40;69.30;;;;;;4958789;29;20466;-66
2022/03/02 14:51:34;;;;;;;14.50;11.70;;;9.30;69.10;;;;;;4958536;29;20484;-67
2022/03/02 14:54:04;;;;;;;19.80;12.47;;;9.40;70.00;;;;;;4958781;29;20462;-66
2022/03/02 14:56:36;;;;;;;13.30;12.00;;;9.40;70.20;;;;;;4958627;29;20518;-66
2022/03/02 14:59:03;;;;;;;13.73;12.30;;;9.40;69.50;;;;;;4958820;29;20475;-68
2022/03/02 15:01:33;;;;;;;14.80;12.10;;;9.40;70.40;;;;;;4958275;29;21006;-66
2022/03/02 15:04:03;;;;;;;17.77;13.00;;;9.40;70.30;;;;;;4958286;29;20855;-67
2022/03/02 15:06:31;;;;;;;13.53;12.13;;;9.20;71.40;;;;;;4958284;29;20935;-66
2022/03/02 15:08:59;;;;;;;12.10;10.97;;;9.20;71.80;;;;;;4958362;29;20911;-67
2022/03/02 15:11:30;;;;;;;13.53;12.20;;;9.00;71.60;;;;;;4958375;29;20479;-68
2022/03/02 15:16:49;;;;;;;14.13;11.70;;;8.90;72.50;;;;;;4958488;29;20424;-67
2022/03/02 15:19:17;;;;;;;14.30;11.63;;;8.80;73.00;;;;;;4958508;29;20444;-67
2022/03/02 15:21:45;;;;;;;13.47;11.07;;;8.80;73.30;;;;;;4958131;29;20476;-66
2022/03/02 15:24:13;;;;;;;13.77;12.30;;;8.80;74.20;;;;;;4958169;29;20480;-67
2022/03/02 15:26:45;;;;;;;16.60;11.60;;;8.80;74.20;;;;;;4958237;28;20819;-68
2022/03/02 15:29:14;;;;;;;19.20;11.50;;;8.80;73.50;;;;;;4963226;29;20452;-67
2022/03/02 15:31:53;;;;;;;13.73;12.07;;;8.80;72.70;;;;;;4973691;29;20476;-67
2022/03/02 15:34:22;;;;;;;14.73;11.60;;;8.70;73.50;;;;;;4958510;29;20478;-67
2022/03/02 15:36:50;;;;;;;11.70;10.50;;;8.60;74.50;;;;;;4958274;29;20460;-66
2022/03/02 15:39:26;;;;;;;13.17;11.63;;;8.40;74.80;;;;;;4957676;29;20456;-67
2022/03/02 15:41:58;;;;;;;12.37;11.13;;;8.40;76.00;;;;;;4957447;28;20507;-66
2022/03/02 15:44:25;;;;;;;17.17;12.50;;;8.50;75.60;;;;;;4960492;29;20472;-67
2022/03/02 15:46:52;;;;;;;12.70;11.40;;;8.60;75.20;;;;;;4960815;29;20456;-67
2022/03/02 15:49:18;;;;;;;13.47;12.03;;;8.50;75.60;;;;;;4960339;29;20456;-67
2022/03/02 15:51:45;;;;;;;14.70;13.10;;;8.50;76.50;;;;;;4960298;29;20486;-67
2022/03/02 15:54:13;;;;;;;13.60;12.40;;;8.50;77.00;;;;;;4959542;29;20456;-67
2022/03/02 15:56:53;;;;;;;16.70;11.70;;;8.40;77.10;;;;;;4958867;28;20519;-67
2022/03/02 15:59:23;;;;;;;14.67;12.67;;;8.50;77.90;;;;;;4958578;29;20915;-67
2022/03/02 16:01:50;;;;;;;13.80;12.40;;;8.50;77.50;;;;;;4957072;29;20542;-66
2022/03/02 16:04:17;;;;;;;12.70;11.40;;;8.50;77.90;;;;;;4956574;28;21007;-66
2022/03/02 16:06:56;;;;;;;13.40;11.83;;;8.50;77.70;;;;;;4957153;29;20459;-66
2022/03/02 16:09:24;;;;;;;13.23;12.03;;;8.50;78.20;;;;;;4957553;29;20444;-66
2022/03/02 16:11:51;;;;;;;12.53;11.37;;;8.40;78.40;;;;;;4957955;28;20562;-67
2022/03/02 16:14:19;;;;;;;15.43;12.07;;;8.30;78.00;;;;;;4957047;29;20456;-68
2022/03/02 16:16:49;;;;;;;14.00;12.60;;;8.40;77.70;;;;;;4957001;29;20455;-65
2022/03/02 16:19:18;;;;;;;12.53;11.23;;;8.30;78.40;;;;;;4956967;29;20444;-67
2022/03/02 16:21:47;;;;;;;12.43;10.23;;;8.40;79.40;;;;;;4956698;29;20812;-68
2022/03/02 16:24:28;;;;;;;14.53;11.77;;;8.30;79.40;;;;;;4956709;29;20463;-68
2022/03/02 16:27:11;;;;;;;18.40;12.10;;;8.40;79.70;;;;;;4956800;29;20447;-67
2022/03/02 16:29:37;;;;;;;12.10;10.83;;;8.40;79.40;;;;;;4956693;28;20436;-67
2022/03/02 16:32:06;;;;;;;12.60;11.17;;;8.40;79.20;;;;;;4956737;29;20482;-68
2022/03/02 16:34:34;;;;;;;14.10;12.40;;;8.40;78.80;;;;;;4956639;28;20452;-67
2022/03/02 16:37:04;;;;;;;13.97;12.20;;;8.30;78.70;;;;;;4957481;29;20464;-67
2022/03/02 16:39:31;;;;;;;17.43;11.43;;;8.10;79.10;;;;;;4957145;29;20436;-66
2022/03/02 16:41:58;;;;;;;13.67;11.80;;;8.10;79.30;;;;;;4956999;28;20475;-67
2022/03/02 16:44:25;;;;;;;14.23;11.77;;;8.00;80.00;;;;;;4957184;29;20503;-67
2022/03/02 16:46:51;;;;;;;13.30;11.60;;;7.90;80.80;;;;;;4957328;29;20466;-66
2022/03/02 16:49:20;;;;;;;15.10;11.47;;;7.90;82.60;;;;;;4957551;29;20788;-67
2022/03/02 16:51:46;;;;;;;14.37;11.27;;;7.90;82.50;;;;;;4956424;29;20482;-67
2022/03/02 16:54:15;;;;;;;14.67;11.80;;;8.00;82.30;;;;;;4955949;28;20452;-68
2022/03/02 16:56:42;;;;;;;12.97;11.70;;;7.90;82.30;;;;;;4958317;29;20463;-67
2022/03/02 16:59:09;;;;;;;15.23;12.73;;;7.80;82.60;;;;;;4956098;29;20471;-67
2022/03/02 17:01:36;;;;;;;14.37;12.10;;;7.70;83.70;;;;;;4955772;28;20499;-67
2022/03/02 17:04:03;;;;;;;14.30;11.03;;;7.70;84.40;;;;;;4956136;28;20466;-67
2022/03/02 17:06:49;;;;;;;12.10;10.90;;;7.80;83.90;;;;;;4956048;29;20468;-65
2022/03/02 17:09:18;;;;;;;14.43;12.90;;;7.80;84.60;;;;;;4956098;29;20807;-68
2022/03/02 17:11:45;;;;;;;17.90;12.30;;;7.80;84.40;;;;;;4956132;29;20491;-67
2022/03/02 17:14:13;;;;;;;16.17;13.23;;;7.80;84.40;;;;;;4956309;29;20530;-69
2022/03/02 17:16:40;;;;;;;13.60;12.20;;;7.70;84.00;;;;;;4956252;29;20462;-69
2022/03/02 17:19:09;;;;;;;13.53;12.13;;;7.60;85.00;;;;;;4955431;28;20947;-69
2022/03/02 17:21:37;;;;;;;12.73;11.43;;;7.60;85.70;;;;;;4956730;29;20483;-68
2022/03/02 17:24:04;;;;;;;13.43;12.03;;;7.60;86.90;;;;;;4957149;29;20455;-68
2022/03/02 17:26:31;;;;;;;13.47;12.07;;;7.60;87.40;;;;;;4955841;29;20476;-69
2022/03/02 17:28:58;;;;;;;12.97;11.33;;;7.60;87.20;;;;;;4956319;28;20455;-68
2022/03/02 17:31:29;;;;;;;14.53;12.60;;;7.60;88.30;;;;;;4956185;29;20532;-68
2022/03/02 17:33:55;;;;;;;16.37;12.60;;;7.60;88.40;;;;;;4957733;29;20456;-68
2022/03/02 17:36:22;;;;;;;15.10;11.77;;;7.50;88.50;;;;;;4960141;28;20459;-67
2022/03/02 17:38:52;;;;;;;15.47;12.67;;;7.60;88.60;;;;;;4955793;29;20463;-69
2022/03/02 17:41:19;;;;;;;14.30;11.90;;;7.60;89.60;;;;;;4955420;29;20527;-68
2022/03/02 17:43:46;;;;;;;14.00;12.57;;;7.60;90.00;;;;;;4955749;29;20828;-68
2022/03/02 17:46:13;;;;;;;13.30;11.50;;;7.60;90.00;;;;;;4956004;28;20472;-67
2022/03/02 17:48:39;;;;;;;16.63;11.70;;;7.60;89.40;;;;;;4956298;28;20462;-68
2022/03/02 17:51:06;;;;;;;13.47;11.50;;;7.60;90.20;;;;;;4958183;28;20479;-68